Time;durP1;ratioP1;P1;durP2;ratioP2;P2;SDS_P1;SDS_P2;PMS_P1;PMS_P2;Temp;Humidity;BMP_temperature;BMP_pressure;BME280_temperature;BME280_humidity;BME280_pressure;Samples;Min_cycle;Max_cycle;Signal;HPM_P1;HPM_P2
2021/12/23 00:00:06;;;;;;;16.88;11.38;;;0.40;99.90;;;;;;5052039;28;20065;-66
2021/12/23 00:02:31;;;;;;;18.83;11.23;;;0.40;99.90;;;;;;5052160;28;20097;-65
2021/12/23 00:04:57;;;;;;;16.80;11.02;;;0.40;99.90;;;;;;5056281;28;20111;-66
2021/12/23 00:07:22;;;;;;;17.35;11.18;;;0.40;99.90;;;;;;5050960;28;20048;-66
2021/12/23 00:12:14;;;;;;;19.15;11.57;;;0.50;99.90;;;;;;5053936;28;20102;-66
2021/12/23 00:14:40;;;;;;;18.33;11.50;;;0.50;99.90;;;;;;5049860;28;20364;-65
2021/12/23 00:17:19;;;;;;;16.80;10.77;;;0.50;99.90;;;;;;5052630;28;20044;-65
2021/12/23 00:23:24;;;;;;;17.50;10.45;;;0.50;99.90;;;;;;5054521;28;20032;-67
2021/12/23 00:25:30;;;;;;;17.05;11.23;;;0.50;99.90;;;;;;5060350;28;20439;-65
2021/12/23 00:27:55;;;;;;;17.45;11.55;;;0.50;99.90;;;;;;5048161;28;20041;-64
2021/12/23 00:30:21;;;;;;;17.77;10.80;;;0.50;99.90;;;;;;5055370;28;20179;-65
2021/12/23 00:32:46;;;;;;;17.73;11.30;;;0.50;99.90;;;;;;5050290;28;20185;-66
2021/12/23 00:35:12;;;;;;;19.08;11.50;;;0.50;99.90;;;;;;5057105;28;20052;-65
2021/12/23 00:37:42;;;;;;;17.63;10.60;;;0.50;99.90;;;;;;5048830;28;20055;-65
2021/12/23 00:40:10;;;;;;;19.02;10.95;;;0.50;99.90;;;;;;5055672;28;20544;-65
2021/12/23 00:42:35;;;;;;;18.23;10.88;;;0.50;99.90;;;;;;5037794;28;20068;-65
2021/12/23 00:45:03;;;;;;;18.80;11.57;;;0.50;99.90;;;;;;5052277;28;20047;-65
2021/12/23 00:47:29;;;;;;;18.63;11.18;;;0.50;99.90;;;;;;5048987;28;20041;-65
2021/12/23 00:49:55;;;;;;;17.48;10.82;;;0.50;99.90;;;;;;5051591;28;20071;-65
2021/12/23 00:52:28;;;;;;;17.73;11.50;;;0.50;99.90;;;;;;5053186;28;20484;-66
2021/12/23 00:54:53;;;;;;;18.40;10.95;;;0.50;99.90;;;;;;5049347;28;20112;-66
2021/12/23 00:57:25;;;;;;;16.48;11.20;;;0.50;99.90;;;;;;5048881;28;20531;-65
2021/12/23 00:59:51;;;;;;;19.13;11.38;;;0.50;99.90;;;;;;5051226;28;20052;-65
2021/12/23 01:02:17;;;;;;;18.02;11.18;;;0.50;99.90;;;;;;5047998;28;20457;-65
2021/12/23 01:04:43;;;;;;;18.52;11.43;;;0.60;99.90;;;;;;5050500;28;20077;-66
2021/12/23 01:07:09;;;;;;;18.10;11.57;;;0.50;99.90;;;;;;5049999;28;20526;-66
2021/12/23 01:09:34;;;;;;;17.85;10.93;;;0.60;99.90;;;;;;5043478;28;20033;-65
2021/12/23 01:12:00;;;;;;;17.30;10.45;;;0.60;99.90;;;;;;5042068;28;20056;-66
2021/12/23 01:14:29;;;;;;;20.25;11.70;;;0.60;99.90;;;;;;5045493;28;20098;-65
2021/12/23 01:19:27;;;;;;;18.00;11.38;;;0.60;99.90;;;;;;5052388;28;20037;-65
2021/12/23 01:21:54;;;;;;;17.40;11.13;;;0.60;99.90;;;;;;5047649;28;20049;-65
2021/12/23 01:24:20;;;;;;;19.92;11.60;;;0.60;99.90;;;;;;5029235;28;20048;-65
2021/12/23 01:26:45;;;;;;;17.52;11.23;;;0.60;99.90;;;;;;5046125;28;20049;-65
2021/12/23 01:29:11;;;;;;;18.88;11.57;;;0.60;99.90;;;;;;5047594;28;20048;-65
2021/12/23 01:31:38;;;;;;;17.08;11.13;;;0.60;99.90;;;;;;5048697;28;20037;-65
2021/12/23 01:34:04;;;;;;;17.45;11.40;;;0.50;99.90;;;;;;5047654;28;20487;-65
2021/12/23 01:36:30;;;;;;;21.02;12.05;;;0.60;99.90;;;;;;5044282;28;20445;-66
2021/12/23 01:38:56;;;;;;;18.42;10.70;;;0.60;99.90;;;;;;5041963;28;20095;-65
2021/12/23 01:41:24;;;;;;;17.20;11.13;;;0.50;99.90;;;;;;5056548;28;20135;-66
2021/12/23 01:43:52;;;;;;;18.90;11.70;;;0.60;99.90;;;;;;5045985;28;20507;-65
2021/12/23 01:46:18;;;;;;;17.20;11.48;;;0.60;99.90;;;;;;5045459;28;20163;-66
2021/12/23 01:48:44;;;;;;;17.23;10.90;;;0.60;99.90;;;;;;5044507;28;20396;-65
2021/12/23 01:51:10;;;;;;;17.52;10.48;;;0.60;99.90;;;;;;5046994;28;20178;-66
2021/12/23 01:53:35;;;;;;;17.15;11.90;;;0.60;99.90;;;;;;5041689;28;20124;-65
2021/12/23 01:56:01;;;;;;;18.65;11.52;;;0.60;99.90;;;;;;5048081;28;20052;-66
2021/12/23 01:58:27;;;;;;;18.88;11.10;;;0.60;99.90;;;;;;5031900;28;20033;-66
2021/12/23 02:00:53;;;;;;;17.85;11.13;;;0.50;99.90;;;;;;5046833;28;20053;-66
2021/12/23 02:03:20;;;;;;;17.00;10.88;;;0.60;99.90;;;;;;5054178;28;20425;-65
2021/12/23 02:05:46;;;;;;;18.83;11.27;;;0.60;99.90;;;;;;5045136;28;20055;-66
2021/12/23 02:08:12;;;;;;;16.92;11.05;;;0.60;99.90;;;;;;5045149;28;20064;-66
2021/12/23 02:10:40;;;;;;;16.25;11.15;;;0.50;99.90;;;;;;5052359;28;20045;-65
2021/12/23 02:13:06;;;;;;;18.08;11.55;;;0.50;99.90;;;;;;5047224;28;20462;-66
2021/12/23 02:15:31;;;;;;;17.00;11.27;;;0.60;99.90;;;;;;5047213;28;20170;-65
2021/12/23 02:17:58;;;;;;;19.42;11.85;;;0.60;99.90;;;;;;5045961;28;20510;-65
2021/12/23 02:20:28;;;;;;;18.60;11.35;;;0.60;99.90;;;;;;5055660;28;20167;-65
2021/12/23 02:22:54;;;;;;;18.17;10.90;;;0.60;99.90;;;;;;5045829;28;20147;-65
2021/12/23 02:25:20;;;;;;;17.33;11.27;;;0.60;99.90;;;;;;5048144;28;20133;-65
2021/12/23 02:27:47;;;;;;;18.13;11.93;;;0.60;99.90;;;;;;5046123;28;20398;-64
2021/12/23 02:30:17;;;;;;;18.90;11.88;;;0.60;99.90;;;;;;5048148;28;20449;-65
2021/12/23 02:32:44;;;;;;;20.70;12.70;;;0.60;99.90;;;;;;5050355;28;20475;-65
2021/12/23 02:35:13;;;;;;;19.55;12.52;;;0.60;99.90;;;;;;5047896;28;20048;-65
2021/12/23 02:37:39;;;;;;;18.20;12.02;;;0.60;99.90;;;;;;5047409;28;20048;-65
2021/12/23 02:40:06;;;;;;;19.02;12.27;;;0.60;99.90;;;;;;5056146;28;20038;-66
2021/12/23 02:42:31;;;;;;;18.13;11.90;;;0.50;99.90;;;;;;5050458;28;20433;-66
2021/12/23 02:44:58;;;;;;;18.45;11.82;;;0.50;99.90;;;;;;5043404;28;20059;-65
2021/12/23 02:47:24;;;;;;;18.77;11.98;;;0.40;99.90;;;;;;5044915;28;20047;-65
2021/12/23 02:49:49;;;;;;;19.60;11.90;;;0.40;99.90;;;;;;5051425;28;20036;-65
2021/12/23 02:52:15;;;;;;;19.63;11.95;;;0.50;99.90;;;;;;5043918;28;20563;-65
2021/12/23 02:54:41;;;;;;;20.88;12.10;;;0.50;99.90;;;;;;5051632;28;20056;-65
2021/12/23 02:57:07;;;;;;;20.08;12.65;;;0.60;99.90;;;;;;5048157;28;20044;-64
2021/12/23 02:59:33;;;;;;;19.20;12.32;;;0.60;99.90;;;;;;5046741;28;20481;-66
2021/12/23 03:02:00;;;;;;;19.42;11.95;;;0.60;99.90;;;;;;5046221;28;20045;-65
2021/12/23 03:04:25;;;;;;;19.23;12.35;;;0.70;99.90;;;;;;5047898;28;20062;-65
2021/12/23 03:06:55;;;;;;;19.23;12.45;;;0.60;99.90;;;;;;5043736;28;20063;-64
2021/12/23 03:09:21;;;;;;;20.17;13.10;;;0.70;99.90;;;;;;5053458;28;20059;-65
2021/12/23 03:11:47;;;;;;;19.52;12.70;;;0.70;99.90;;;;;;5051606;28;20037;-65
2021/12/23 03:14:14;;;;;;;20.33;12.35;;;0.70;99.90;;;;;;5049919;28;20120;-66
2021/12/23 03:16:39;;;;;;;20.15;12.80;;;0.70;99.90;;;;;;5044581;28;20075;-66
2021/12/23 03:19:06;;;;;;;19.27;12.40;;;0.70;99.90;;;;;;5049449;28;20049;-65
2021/12/23 03:21:33;;;;;;;20.67;12.63;;;0.70;99.90;;;;;;5047222;28;20057;-66
2021/12/23 03:23:59;;;;;;;20.42;12.40;;;0.70;99.90;;;;;;5043586;28;20045;-65
2021/12/23 03:26:24;;;;;;;21.00;13.13;;;0.70;99.90;;;;;;5051461;28;20051;-65
2021/12/23 03:28:50;;;;;;;21.27;13.00;;;0.70;99.90;;;;;;5046748;28;20045;-65
2021/12/23 03:31:16;;;;;;;18.50;12.25;;;0.70;99.90;;;;;;5050569;28;20067;-66
2021/12/23 03:33:42;;;;;;;20.45;12.48;;;0.70;99.90;;;;;;5048937;28;20120;-65
2021/12/23 03:36:07;;;;;;;21.67;12.95;;;0.70;99.90;;;;;;5050646;28;20171;-67
2021/12/23 03:38:33;;;;;;;19.58;12.45;;;0.70;99.90;;;;;;5054796;28;20048;-66
2021/12/23 03:40:59;;;;;;;22.15;14.00;;;0.70;99.90;;;;;;5054502;28;20036;-66
2021/12/23 03:43:24;;;;;;;21.55;13.50;;;0.70;99.90;;;;;;5051166;28;20164;-66
2021/12/23 03:45:50;;;;;;;20.35;12.70;;;0.70;99.90;;;;;;5052408;28;20044;-65
2021/12/23 03:48:18;;;;;;;22.20;13.75;;;0.70;99.90;;;;;;5053984;28;20121;-65
2021/12/23 03:50:45;;;;;;;22.83;14.02;;;0.70;99.90;;;;;;5045815;28;20040;-66
2021/12/23 03:53:10;;;;;;;23.05;13.40;;;0.70;99.90;;;;;;5056935;28;20376;-66
2021/12/23 03:55:36;;;;;;;21.05;13.43;;;0.70;99.90;;;;;;5054889;28;20055;-65
2021/12/23 03:58:02;;;;;;;21.55;13.25;;;0.70;99.90;;;;;;5056243;28;20048;-66
2021/12/23 04:00:28;;;;;;;23.95;14.45;;;0.70;99.90;;;;;;5051007;28;20175;-65
2021/12/23 04:02:55;;;;;;;22.50;14.35;;;0.70;99.90;;;;;;5052337;28;20037;-65
2021/12/23 04:05:20;;;;;;;22.17;13.70;;;0.70;99.90;;;;;;5050212;28;20056;-67
2021/12/23 04:07:46;;;;;;;23.20;14.63;;;0.70;99.90;;;;;;5052728;28;20044;-66
2021/12/23 04:10:21;;;;;;;21.88;13.63;;;0.70;99.90;;;;;;5050229;28;20041;-65
2021/12/23 04:12:47;;;;;;;21.83;13.60;;;0.70;99.90;;;;;;5045190;28;20468;-65
2021/12/23 04:15:13;;;;;;;21.48;13.55;;;0.70;99.90;;;;;;5048339;28;20072;-65
2021/12/23 04:17:39;;;;;;;23.25;15.15;;;0.70;99.90;;;;;;5055424;28;20483;-66
2021/12/23 04:20:16;;;;;;;24.30;15.15;;;0.70;99.90;;;;;;5048105;28;20049;-65
2021/12/23 04:22:43;;;;;;;23.98;14.43;;;0.70;99.90;;;;;;5039437;28;20547;-65
2021/12/23 04:25:10;;;;;;;23.63;14.95;;;0.70;99.90;;;;;;5049855;28;20071;-65
2021/12/23 04:27:35;;;;;;;24.92;15.25;;;0.70;99.90;;;;;;5053028;28;20045;-65
2021/12/23 04:30:01;;;;;;;22.20;14.43;;;0.70;99.90;;;;;;5059365;28;20037;-65
2021/12/23 04:32:27;;;;;;;21.67;14.40;;;0.80;99.90;;;;;;5050030;28;20182;-66
2021/12/23 04:34:52;;;;;;;24.10;15.13;;;0.70;99.90;;;;;;5048329;28;20476;-66
2021/12/23 04:37:18;;;;;;;23.40;14.77;;;0.80;99.90;;;;;;5047247;28;20430;-65
2021/12/23 04:39:43;;;;;;;23.73;14.70;;;0.80;99.90;;;;;;5054246;28;20072;-65
2021/12/23 04:42:09;;;;;;;22.58;14.77;;;0.80;99.90;;;;;;5049530;28;20069;-65
2021/12/23 04:44:34;;;;;;;23.05;14.32;;;0.90;99.90;;;;;;5046647;28;20041;-66
2021/12/23 04:47:00;;;;;;;22.33;14.55;;;0.90;99.90;;;;;;5049300;28;20094;-66
2021/12/23 04:49:25;;;;;;;23.00;14.15;;;0.90;99.90;;;;;;5056656;28;20048;-65
2021/12/23 04:51:51;;;;;;;23.10;14.57;;;0.90;99.90;;;;;;5048305;28;20075;-66
2021/12/23 04:54:17;;;;;;;26.02;15.48;;;0.90;99.90;;;;;;5050299;28;20077;-65
2021/12/23 04:56:42;;;;;;;24.40;14.63;;;0.90;99.90;;;;;;5049490;28;20346;-66
2021/12/23 04:59:08;;;;;;;22.73;15.10;;;0.90;99.90;;;;;;5050336;28;20088;-65
2021/12/23 05:01:33;;;;;;;24.45;14.57;;;1.00;99.90;;;;;;5057578;28;20064;-66
2021/12/23 05:03:59;;;;;;;25.15;15.52;;;0.90;99.90;;;;;;5053944;28;20048;-65
2021/12/23 05:06:25;;;;;;;27.10;15.77;;;1.00;99.90;;;;;;5048519;28;20053;-66
2021/12/23 05:08:51;;;;;;;24.50;15.40;;;1.00;99.90;;;;;;5050186;28;20064;-65
2021/12/23 05:11:17;;;;;;;24.98;15.45;;;1.00;99.90;;;;;;5061136;28;20036;-64
2021/12/23 05:13:45;;;;;;;25.00;15.23;;;1.00;99.90;;;;;;5048940;28;20064;-66
2021/12/23 05:16:10;;;;;;;22.90;14.35;;;1.00;99.90;;;;;;5052640;28;20051;-66
2021/12/23 05:18:36;;;;;;;25.38;14.93;;;1.00;99.90;;;;;;5050806;28;20048;-66
2021/12/23 05:21:05;;;;;;;22.50;14.88;;;1.00;99.90;;;;;;5055759;28;20048;-65
2021/12/23 05:23:31;;;;;;;22.98;15.05;;;1.00;99.90;;;;;;5051620;28;20049;-64
2021/12/23 05:25:57;;;;;;;22.73;14.32;;;1.10;99.90;;;;;;5056897;28;20478;-65
2021/12/23 05:28:23;;;;;;;24.40;15.02;;;1.10;99.90;;;;;;5047619;28;20120;-66
2021/12/23 05:30:48;;;;;;;23.58;15.27;;;1.10;99.90;;;;;;5049299;28;20045;-64
2021/12/23 05:33:14;;;;;;;25.88;15.63;;;1.20;99.90;;;;;;5046442;28;20037;-65
2021/12/23 05:35:40;;;;;;;23.80;14.93;;;1.10;99.90;;;;;;5051220;28;20529;-66
2021/12/23 05:38:05;;;;;;;27.48;16.40;;;1.10;99.90;;;;;;5046579;28;20364;-66
2021/12/23 05:40:32;;;;;;;24.90;15.85;;;1.10;99.90;;;;;;5053439;28;20109;-65
2021/12/23 05:42:58;;;;;;;26.08;16.50;;;1.10;99.90;;;;;;5037028;28;20048;-65
2021/12/23 05:45:24;;;;;;;26.67;15.52;;;1.10;99.90;;;;;;5045247;28;20059;-66
2021/12/23 05:47:50;;;;;;;23.75;15.25;;;1.20;99.90;;;;;;5048289;28;20049;-65
2021/12/23 05:50:17;;;;;;;23.83;15.13;;;1.20;99.90;;;;;;5049363;28;20395;-67
2021/12/23 05:52:43;;;;;;;24.73;15.32;;;1.20;99.90;;;;;;5047666;28;20121;-67
2021/12/23 05:55:11;;;;;;;22.02;14.73;;;1.20;99.90;;;;;;5045787;28;20743;-66
2021/12/23 05:57:37;;;;;;;25.10;15.55;;;1.20;99.90;;;;;;5044792;28;20061;-66
2021/12/23 06:00:10;;;;;;;25.05;15.23;;;1.10;99.90;;;;;;5054380;28;20045;-66
2021/12/23 06:02:36;;;;;;;25.40;15.35;;;1.10;99.90;;;;;;5048127;28;20055;-65
2021/12/23 06:05:03;;;;;;;21.05;14.13;;;1.10;99.90;;;;;;5050005;28;20116;-65
2021/12/23 06:07:28;;;;;;;25.00;15.23;;;1.10;99.90;;;;;;5046753;28;20229;-65
2021/12/23 06:09:54;;;;;;;24.25;14.98;;;1.10;99.90;;;;;;5046050;28;20160;-66
2021/12/23 06:12:20;;;;;;;24.48;15.23;;;1.10;99.90;;;;;;5044692;28;20113;-65
2021/12/23 06:14:45;;;;;;;24.77;15.82;;;1.10;99.90;;;;;;5046522;28;20156;-65
2021/12/23 06:17:11;;;;;;;22.50;14.23;;;1.10;99.90;;;;;;5048281;28;20452;-65
2021/12/23 06:19:36;;;;;;;25.80;15.60;;;1.10;99.90;;;;;;5048612;28;20039;-66
2021/12/23 06:22:02;;;;;;;26.90;15.23;;;1.10;99.90;;;;;;5046498;28;20048;-66
2021/12/23 06:24:28;;;;;;;24.92;15.15;;;1.10;99.90;;;;;;5047221;28;20128;-66
2021/12/23 06:26:53;;;;;;;25.65;15.60;;;1.00;99.90;;;;;;5047490;28;20134;-66
2021/12/23 06:29:19;;;;;;;25.60;15.65;;;1.10;99.90;;;;;;5046040;28;20047;-65
2021/12/23 06:31:44;;;;;;;25.33;16.02;;;1.10;99.90;;;;;;5050008;28;20554;-66
2021/12/23 06:34:10;;;;;;;24.80;15.15;;;1.10;99.90;;;;;;5049082;28;20671;-65
2021/12/23 06:36:36;;;;;;;25.20;14.55;;;1.10;99.90;;;;;;5042855;28;20120;-66
2021/12/23 06:39:01;;;;;;;26.13;15.10;;;1.10;99.90;;;;;;5045151;28;20030;-64
2021/12/23 06:41:27;;;;;;;24.85;15.38;;;1.10;99.90;;;;;;5043372;28;20107;-66
2021/12/23 06:43:52;;;;;;;24.13;14.85;;;1.10;99.90;;;;;;5049083;28;20037;-67
2021/12/23 06:46:18;;;;;;;24.85;15.13;;;1.10;99.90;;;;;;5045287;28;20041;-66
2021/12/23 06:48:43;;;;;;;24.85;15.73;;;1.10;99.90;;;;;;5034188;28;20037;-65
2021/12/23 06:51:09;;;;;;;24.70;16.20;;;1.10;99.90;;;;;;5046416;28;20387;-67
2021/12/23 06:53:36;;;;;;;23.50;15.13;;;1.10;99.90;;;;;;5044538;28;20037;-68
2021/12/23 06:56:02;;;;;;;25.05;15.73;;;1.10;99.90;;;;;;5047778;28;20448;-69
2021/12/23 06:58:28;;;;;;;26.23;15.30;;;1.10;99.90;;;;;;5043530;28;20053;-67
2021/12/23 07:00:54;;;;;;;23.83;15.02;;;1.10;99.90;;;;;;5061732;28;20112;-67
2021/12/23 07:03:21;;;;;;;25.45;16.20;;;1.20;99.90;;;;;;5050660;28;20052;-68
2021/12/23 07:05:52;;;;;;;24.00;16.48;;;1.10;99.90;;;;;;5042579;28;20057;-67
2021/12/23 07:08:29;;;;;;;25.27;16.13;;;1.10;99.90;;;;;;5045538;28;20057;-70
2021/12/23 07:10:55;;;;;;;26.52;15.95;;;1.20;99.90;;;;;;5047312;28;20098;-68
2021/12/23 07:13:20;;;;;;;23.90;15.35;;;1.20;99.90;;;;;;5042601;28;20415;-67
2021/12/23 07:15:47;;;;;;;25.00;16.00;;;1.20;99.90;;;;;;5043803;28;20128;-68
2021/12/23 07:18:13;;;;;;;24.27;15.32;;;1.20;99.90;;;;;;5047330;28;20091;-70
2021/12/23 07:20:53;;;;;;;25.40;16.98;;;1.20;99.90;;;;;;5046112;28;20045;-69
2021/12/23 07:23:26;;;;;;;25.95;16.02;;;1.20;99.90;;;;;;5046646;28;20645;-68
2021/12/23 07:25:51;;;;;;;24.08;15.80;;;1.20;99.90;;;;;;5045164;28;20435;-68
2021/12/23 07:28:17;;;;;;;25.40;16.95;;;1.20;99.90;;;;;;5046552;28;20059;-67
2021/12/23 07:30:43;;;;;;;26.67;16.88;;;1.20;99.90;;;;;;5030931;28;20518;-67
2021/12/23 07:33:08;;;;;;;25.85;17.20;;;1.20;99.90;;;;;;5046910;28;20065;-68
2021/12/23 07:35:34;;;;;;;27.67;16.75;;;1.20;99.90;;;;;;5037032;28;20363;-68
2021/12/23 07:38:01;;;;;;;29.25;16.73;;;1.20;99.90;;;;;;5044052;28;21572;-64
2021/12/23 07:40:28;;;;;;;27.70;17.05;;;1.20;99.90;;;;;;5047009;28;20052;-66
2021/12/23 07:42:56;;;;;;;26.30;16.52;;;1.20;99.90;;;;;;5042457;28;20056;-67
2021/12/23 07:45:26;;;;;;;29.60;18.02;;;1.10;99.90;;;;;;5042731;28;20100;-67
2021/12/23 07:47:51;;;;;;;29.20;17.80;;;1.10;99.90;;;;;;5044706;28;20441;-66
2021/12/23 07:50:17;;;;;;;27.65;17.02;;;1.10;99.90;;;;;;5046521;28;20065;-67
2021/12/23 07:52:43;;;;;;;28.08;17.48;;;1.10;99.90;;;;;;5042847;28;20087;-67
2021/12/23 07:55:09;;;;;;;29.88;18.45;;;1.10;99.90;;;;;;5046396;28;20040;-68
2021/12/23 07:57:35;;;;;;;29.33;18.00;;;1.10;99.90;;;;;;5045743;28;20040;-67
2021/12/23 08:00:01;;;;;;;28.13;18.27;;;1.10;99.90;;;;;;5045002;28;20047;-67
2021/12/23 08:02:26;;;;;;;30.52;19.00;;;1.10;99.90;;;;;;5040582;28;20044;-67
2021/12/23 08:04:52;;;;;;;31.40;18.77;;;1.10;99.90;;;;;;5042597;28;20050;-66
2021/12/23 08:07:18;;;;;;;34.58;20.77;;;1.10;99.90;;;;;;5044530;28;20053;-66
2021/12/23 08:09:43;;;;;;;35.05;20.02;;;1.10;99.90;;;;;;5044642;28;20372;-68
2021/12/23 08:12:10;;;;;;;35.97;21.48;;;1.10;99.90;;;;;;5044836;28;20052;-66
2021/12/23 08:14:36;;;;;;;33.90;20.02;;;1.10;99.90;;;;;;5050747;28;20496;-67
2021/12/23 08:17:02;;;;;;;31.52;19.58;;;1.10;99.90;;;;;;5049508;28;20041;-66
2021/12/23 08:19:27;;;;;;;36.13;20.88;;;1.10;99.90;;;;;;5046989;28;20049;-66
2021/12/23 08:21:53;;;;;;;34.72;21.20;;;1.00;99.90;;;;;;5048748;28;20548;-67
2021/12/23 08:24:19;;;;;;;35.72;21.25;;;1.10;99.90;;;;;;5049531;28;20520;-67
2021/12/23 08:26:51;;;;;;;36.00;21.38;;;1.10;99.90;;;;;;5032201;28;20071;-67
2021/12/23 08:29:19;;;;;;;32.90;19.98;;;1.10;99.90;;;;;;5049419;28;20111;-67
2021/12/23 08:31:46;;;;;;;36.80;22.27;;;1.10;99.90;;;;;;5049040;28;20045;-67
2021/12/23 08:34:13;;;;;;;36.35;21.13;;;1.00;99.90;;;;;;5049165;28;20041;-67
2021/12/23 08:36:38;;;;;;;37.08;22.40;;;1.10;99.90;;;;;;5046849;28;20077;-67
2021/12/23 08:39:04;;;;;;;38.25;22.70;;;1.00;99.90;;;;;;5047247;28;20072;-66
2021/12/23 08:41:29;;;;;;;39.03;22.48;;;1.00;99.90;;;;;;5047950;28;20395;-65
2021/12/23 08:43:55;;;;;;;39.60;23.05;;;1.10;99.90;;;;;;5043004;28;20050;-64
2021/12/23 08:46:24;;;;;;;37.45;22.17;;;1.00;99.90;;;;;;5049232;28;20568;-68
2021/12/23 08:48:49;;;;;;;40.92;23.10;;;1.10;99.90;;;;;;5043872;28;20393;-67
2021/12/23 08:51:15;;;;;;;40.70;23.20;;;1.00;99.90;;;;;;5046085;28;20120;-65
2021/12/23 08:53:41;;;;;;;39.53;22.95;;;1.00;99.90;;;;;;5046841;28;20116;-64
2021/12/23 08:56:08;;;;;;;41.78;23.15;;;1.00;99.90;;;;;;5047779;28;20377;-65
2021/12/23 08:58:35;;;;;;;41.60;24.40;;;1.00;99.90;;;;;;5043421;28;20041;-66
2021/12/23 09:01:02;;;;;;;45.05;24.83;;;1.00;99.90;;;;;;5049209;28;20124;-65
2021/12/23 09:03:31;;;;;;;42.50;24.55;;;1.10;99.90;;;;;;5050936;28;20543;-66
2021/12/23 09:05:58;;;;;;;44.13;25.13;;;1.10;99.90;;;;;;5043546;28;20057;-66
2021/12/23 09:08:25;;;;;;;43.92;25.45;;;1.20;99.90;;;;;;5048382;28;20083;-63
2021/12/23 09:10:52;;;;;;;43.13;24.52;;;1.20;99.90;;;;;;5044547;28;20509;-64
2021/12/23 09:13:17;;;;;;;41.35;24.25;;;1.20;99.90;;;;;;5048578;28;20048;-66
2021/12/23 09:15:43;;;;;;;44.15;25.48;;;1.20;99.90;;;;;;5049403;28;20041;-65
2021/12/23 09:18:09;;;;;;;44.50;25.80;;;1.30;99.90;;;;;;5050315;28;20041;-64
2021/12/23 09:20:34;;;;;;;44.22;24.38;;;1.30;99.90;;;;;;5049247;28;21219;-65
2021/12/23 09:23:01;;;;;;;46.58;25.13;;;1.20;99.90;;;;;;5047819;28;20057;-64
2021/12/23 09:25:32;;;;;;;44.55;25.35;;;1.20;99.90;;;;;;5049338;28;20037;-65
2021/12/23 09:33:08;;;;;;;44.58;24.67;;;1.30;99.90;;;;;;5048949;28;20045;-66
2021/12/23 09:35:34;;;;;;;42.10;23.58;;;1.30;99.90;;;;;;5046853;28;20037;-65
2021/12/23 09:38:00;;;;;;;45.95;24.55;;;1.40;99.90;;;;;;5047561;28;20098;-65
2021/12/23 09:40:29;;;;;;;44.08;25.02;;;1.40;99.90;;;;;;5047002;28;20041;-65
2021/12/23 09:42:58;;;;;;;43.92;24.42;;;1.40;99.90;;;;;;5044443;28;20088;-65
2021/12/23 09:45:23;;;;;;;45.13;24.83;;;1.50;99.90;;;;;;5047016;28;20687;-65
2021/12/23 09:47:50;;;;;;;46.70;25.02;;;1.40;99.90;;;;;;5046518;28;20037;-65
2021/12/23 09:50:21;;;;;;;44.53;24.45;;;1.50;99.90;;;;;;5047387;28;20060;-64
2021/12/23 09:52:49;;;;;;;44.72;24.42;;;1.50;99.90;;;;;;5048367;28;20380;-65
2021/12/23 09:55:17;;;;;;;45.05;25.88;;;1.50;99.90;;;;;;5047945;28;20207;-65
2021/12/23 09:57:47;;;;;;;45.75;25.42;;;1.60;99.90;;;;;;5048021;28;20044;-65
2021/12/23 10:00:14;;;;;;;46.22;26.02;;;1.50;99.90;;;;;;5047888;28;20381;-64
2021/12/23 10:02:41;;;;;;;45.28;24.65;;;1.50;99.90;;;;;;5046758;28;20040;-65
2021/12/23 10:05:17;;;;;;;43.78;24.67;;;1.60;99.90;;;;;;5046158;28;20131;-66
2021/12/23 10:07:45;;;;;;;45.70;25.40;;;1.60;99.90;;;;;;5048800;28;20036;-65
2021/12/23 10:10:25;;;;;;;42.55;23.80;;;1.60;99.90;;;;;;5049011;28;20180;-65
2021/12/23 10:27:29;;;;;;;48.42;24.20;;;1.70;99.90;;;;;;5041496;28;20187;-67
2021/12/23 10:38:12;;;;;;;47.08;25.90;;;1.70;99.90;;;;;;5045617;28;20055;-65
2021/12/23 10:40:41;;;;;;;42.10;24.83;;;1.70;99.90;;;;;;5045375;28;20426;-65
2021/12/23 10:43:11;;;;;;;44.25;24.95;;;1.70;99.90;;;;;;5047804;28;20047;-64
2021/12/23 10:45:50;;;;;;;44.15;24.52;;;1.80;99.90;;;;;;5047512;28;20550;-63
2021/12/23 10:48:17;;;;;;;43.90;25.10;;;1.80;99.90;;;;;;5041532;28;20086;-63
2021/12/23 10:50:46;;;;;;;47.15;25.70;;;1.80;99.90;;;;;;5044488;28;20196;-64
2021/12/23 10:53:35;;;;;;;44.65;24.75;;;1.90;99.90;;;;;;5045864;28;20044;-65
2021/12/23 10:59:27;;;;;;;44.45;24.92;;;1.90;99.90;;;;;;5042897;28;20059;-65
2021/12/23 11:02:24;;;;;;;47.35;26.15;;;1.90;99.90;;;;;;5032134;28;20061;-65
2021/12/23 11:05:00;;;;;;;48.38;25.83;;;1.90;99.90;;;;;;5037259;28;20131;-64
2021/12/23 11:07:39;;;;;;;48.45;26.20;;;1.90;99.90;;;;;;5036147;28;20095;-66
2021/12/23 11:10:36;;;;;;;48.13;26.80;;;2.00;99.90;;;;;;5041567;28;20045;-65
2021/12/23 11:38:12;;;;;;;43.88;23.92;;;2.00;99.90;;;;;;5027692;28;20045;-64
2021/12/23 11:40:51;;;;;;;45.28;24.83;;;2.00;99.90;;;;;;5032344;28;20149;-63
2021/12/23 11:45:46;;;;;;;43.83;24.73;;;1.90;99.90;;;;;;5045968;28;20152;-64
2021/12/23 11:48:14;;;;;;;47.60;25.25;;;2.00;99.90;;;;;;5050175;28;20059;-63
2021/12/23 11:50:54;;;;;;;45.22;24.40;;;2.00;99.90;;;;;;5046843;28;20542;-65
2021/12/23 11:53:26;;;;;;;51.63;26.92;;;2.00;99.90;;;;;;5050961;28;20464;-65
2021/12/23 11:55:53;;;;;;;47.42;26.70;;;1.90;99.90;;;;;;5052360;28;20408;-64
2021/12/23 11:58:25;;;;;;;44.38;25.90;;;1.90;99.90;;;;;;5049806;28;20075;-64
2021/12/23 12:01:14;;;;;;;48.50;26.17;;;1.90;99.90;;;;;;5049519;28;20131;-63
2021/12/23 12:04:00;;;;;;;43.08;24.33;;;2.00;99.90;;;;;;5050920;28;20045;-63
2021/12/23 12:06:31;;;;;;;;;;;1.90;99.90;;;;;;5050399;28;20511;-64
2021/12/23 12:09:13;;;;;;;52.97;27.77;;;2.00;99.90;;;;;;5051083;28;20086;-65
2021/12/23 12:11:40;;;;;;;53.58;27.83;;;2.00;99.90;;;;;;5049400;28;20037;-64
2021/12/23 12:14:40;;;;;;;43.75;25.33;;;2.00;99.90;;;;;;5051180;28;20037;-64
2021/12/23 12:17:24;;;;;;;45.67;25.17;;;2.10;99.90;;;;;;5046324;28;20144;-64
2021/12/23 12:20:22;;;;;;;48.42;25.63;;;2.10;99.90;;;;;;5035606;28;20046;-64
2021/12/23 12:22:56;;;;;;;47.35;25.27;;;2.10;99.90;;;;;;5031681;28;20060;-65
2021/12/23 12:25:24;;;;;;;46.03;25.13;;;2.10;99.90;;;;;;5046980;28;20037;-63
2021/12/23 12:27:56;;;;;;;45.10;24.90;;;2.20;99.90;;;;;;5048517;28;20638;-64
2021/12/23 12:30:49;;;;;;;45.53;25.20;;;2.20;99.90;;;;;;5039875;28;20052;-64
2021/12/23 12:33:24;;;;;;;45.20;25.20;;;2.20;99.90;;;;;;5046819;28;20053;-64
2021/12/23 12:35:51;;;;;;;49.00;25.83;;;2.20;99.90;;;;;;5049980;28;20041;-64
2021/12/23 12:38:22;;;;;;;52.47;26.48;;;2.10;99.90;;;;;;5044601;28;20446;-64
2021/12/23 12:40:57;;;;;;;47.95;24.63;;;2.10;99.90;;;;;;5039372;28;20106;-64
2021/12/23 12:43:40;;;;;;;44.15;24.55;;;2.20;99.90;;;;;;5049779;28;20053;-64
2021/12/23 12:46:06;;;;;;;40.83;23.88;;;2.20;99.90;;;;;;5042814;28;20056;-63
2021/12/23 12:49:13;;;;;;;42.88;24.23;;;2.20;99.90;;;;;;5049937;28;20397;-64
2021/12/23 12:51:42;;;;;;;44.17;24.45;;;2.20;99.90;;;;;;5048767;28;20141;-63
2021/12/23 12:54:16;;;;;;;45.47;24.38;;;2.10;99.90;;;;;;5050920;28;20063;-64
2021/12/23 12:56:58;;;;;;;47.58;25.88;;;2.20;99.90;;;;;;5051104;28;20246;-61
2021/12/23 12:59:30;;;;;;;44.97;25.10;;;2.10;99.90;;;;;;5049472;28;20041;-62
2021/12/23 13:01:58;;;;;;;43.33;24.52;;;2.10;99.90;;;;;;5050964;28;20087;-62
2021/12/23 13:04:28;;;;;;;44.83;24.48;;;2.10;99.90;;;;;;5049867;28;20045;-63
2021/12/23 13:06:56;;;;;;;44.92;24.73;;;2.10;99.90;;;;;;5049269;28;20037;-62
2021/12/23 13:09:30;;;;;;;47.63;25.35;;;2.20;99.90;;;;;;5049099;28;20502;-63
2021/12/23 13:12:00;;;;;;;46.38;25.00;;;2.10;99.90;;;;;;5050128;28;20476;-65
2021/12/23 13:14:48;;;;;;;47.35;24.65;;;2.20;99.90;;;;;;5050293;28;20049;-64
2021/12/23 13:17:14;;;;;;;49.17;26.05;;;2.20;99.90;;;;;;5051755;28;20127;-64
2021/12/23 13:19:40;;;;;;;46.70;25.55;;;2.20;99.90;;;;;;5051212;28;20112;-64
2021/12/23 13:22:11;;;;;;;45.88;25.17;;;2.30;99.90;;;;;;5046228;28;20179;-64
2021/12/23 13:24:36;;;;;;;42.40;24.33;;;2.30;99.90;;;;;;5029327;28;20153;-64
2021/12/23 13:27:02;;;;;;;42.78;24.55;;;2.30;99.90;;;;;;5035975;28;20513;-64
2021/12/23 13:29:30;;;;;;;46.50;25.30;;;2.40;99.90;;;;;;5048534;28;20049;-64
2021/12/23 13:31:58;;;;;;;46.33;25.52;;;2.40;99.90;;;;;;5049576;28;20140;-64
2021/12/23 13:34:30;;;;;;;48.22;25.52;;;2.40;99.90;;;;;;5049814;28;20049;-64
2021/12/23 13:36:58;;;;;;;44.53;25.00;;;2.40;99.90;;;;;;5046978;28;20151;-64
2021/12/23 13:39:27;;;;;;;45.78;25.38;;;2.40;99.90;;;;;;5047363;28;20079;-64
2021/12/23 13:41:58;;;;;;;44.63;24.73;;;2.40;99.90;;;;;;5048376;28;20390;-63
2021/12/23 13:44:25;;;;;;;47.40;26.05;;;2.40;99.90;;;;;;5048968;28;20148;-64
2021/12/23 13:47:03;;;;;;;46.83;25.95;;;2.40;99.90;;;;;;5047181;28;20057;-64
2021/12/23 13:49:36;;;;;;;48.05;25.63;;;2.50;99.90;;;;;;5047916;28;20049;-64